sensor_id;sensor_type;location;lat;lon;timestamp;temperature;humidity
74946;HTU21D;63509;45.250;38.102;2023-02-23T00:01:28;3.83;74.91
74946;HTU21D;63509;45.250;38.102;2023-02-23T00:03:56;3.83;74.89
74946;HTU21D;63509;45.250;38.102;2023-02-23T00:06:24;3.84;74.91
74946;HTU21D;63509;45.250;38.102;2023-02-23T00:08:50;3.84;74.94
74946;HTU21D;63509;45.250;38.102;2023-02-23T00:11:17;3.86;75.01
74946;HTU21D;63509;45.250;38.102;2023-02-23T00:13:45;3.87;75.01
74946;HTU21D;63509;45.250;38.102;2023-02-23T00:16:14;3.89;75.00
74946;HTU21D;63509;45.250;38.102;2023-02-23T00:18:49;3.91;75.04
74946;HTU21D;63509;45.250;38.102;2023-02-23T00:21:24;3.90;75.09
74946;HTU21D;63509;45.250;38.102;2023-02-23T00:23:58;3.93;75.12
74946;HTU21D;63509;45.250;38.102;2023-02-23T00:26:27;3.93;75.10
74946;HTU21D;63509;45.250;38.102;2023-02-23T00:28:56;3.97;75.09
74946;HTU21D;63509;45.250;38.102;2023-02-23T00:31:24;3.98;75.05
74946;HTU21D;63509;45.250;38.102;2023-02-23T00:33:57;4.01;75.02
74946;HTU21D;63509;45.250;38.102;2023-02-23T00:36:27;4.01;75.01
74946;HTU21D;63509;45.250;38.102;2023-02-23T00:38:54;4.03;74.99
74946;HTU21D;63509;45.250;38.102;2023-02-23T00:41:22;4.03;75.01
74946;HTU21D;63509;45.250;38.102;2023-02-23T00:43:50;4.02;75.02
74946;HTU21D;63509;45.250;38.102;2023-02-23T00:46:21;4.03;75.00
74946;HTU21D;63509;45.250;38.102;2023-02-23T00:48:50;4.03;74.99
74946;HTU21D;63509;45.250;38.102;2023-02-23T00:51:17;4.05;74.99
74946;HTU21D;63509;45.250;38.102;2023-02-23T00:53:44;4.05;74.97
74946;HTU21D;63509;45.250;38.102;2023-02-23T00:56:12;4.05;74.98
74946;HTU21D;63509;45.250;38.102;2023-02-23T00:58:39;4.06;74.98
74946;HTU21D;63509;45.250;38.102;2023-02-23T01:01:07;4.05;74.97
74946;HTU21D;63509;45.250;38.102;2023-02-23T01:03:35;4.06;74.96
74946;HTU21D;63509;45.250;38.102;2023-02-23T01:06:04;4.08;74.94
74946;HTU21D;63509;45.250;38.102;2023-02-23T01:08:32;4.08;74.95
74946;HTU21D;63509;45.250;38.102;2023-02-23T01:10:59;4.08;74.94
74946;HTU21D;63509;45.250;38.102;2023-02-23T01:13:31;4.08;74.92
74946;HTU21D;63509;45.250;38.102;2023-02-23T01:15:57;4.05;74.95
74946;HTU21D;63509;45.250;38.102;2023-02-23T01:18:24;4.05;74.93
74946;HTU21D;63509;45.250;38.102;2023-02-23T01:20:50;4.04;74.93
74946;HTU21D;63509;45.250;38.102;2023-02-23T01:23:16;4.05;74.95
74946;HTU21D;63509;45.250;38.102;2023-02-23T01:25:46;4.03;74.94
74946;HTU21D;63509;45.250;38.102;2023-02-23T01:28:12;4.02;74.92
74946;HTU21D;63509;45.250;38.102;2023-02-23T01:30:39;4.02;74.91
74946;HTU21D;63509;45.250;38.102;2023-02-23T01:33:06;4.01;74.94
74946;HTU21D;63509;45.250;38.102;2023-02-23T01:35:32;4.00;74.96
74946;HTU21D;63509;45.250;38.102;2023-02-23T01:37:59;4.00;74.92
74946;HTU21D;63509;45.250;38.102;2023-02-23T01:40:26;4.00;74.91
74946;HTU21D;63509;45.250;38.102;2023-02-23T01:42:56;3.98;74.85
74946;HTU21D;63509;45.250;38.102;2023-02-23T01:45:27;3.99;74.81
74946;HTU21D;63509;45.250;38.102;2023-02-23T01:47:57;3.97;74.83
74946;HTU21D;63509;45.250;38.102;2023-02-23T01:50:28;3.95;74.81
74946;HTU21D;63509;45.250;38.102;2023-02-23T01:52:55;3.97;74.83
74946;HTU21D;63509;45.250;38.102;2023-02-23T01:55:25;3.94;74.82
74946;HTU21D;63509;45.250;38.102;2023-02-23T01:57:59;3.97;74.80
74946;HTU21D;63509;45.250;38.102;2023-02-23T02:00:28;3.95;74.76
74946;HTU21D;63509;45.250;38.102;2023-02-23T02:02:59;3.97;74.73
74946;HTU21D;63509;45.250;38.102;2023-02-23T02:05:27;3.98;74.70
74946;HTU21D;63509;45.250;38.102;2023-02-23T02:07:53;3.97;74.61
74946;HTU21D;63509;45.250;38.102;2023-02-23T02:10:26;3.93;74.53
74946;HTU21D;63509;45.250;38.102;2023-02-23T02:13:07;3.89;74.50
74946;HTU21D;63509;45.250;38.102;2023-02-23T02:15:44;3.84;74.45
74946;HTU21D;63509;45.250;38.102;2023-02-23T02:18:39;3.79;74.43
74946;HTU21D;63509;45.250;38.102;2023-02-23T02:21:39;3.72;74.38
74946;HTU21D;63509;45.250;38.102;2023-02-23T02:35:00;3.54;74.43
74946;HTU21D;63509;45.250;38.102;2023-02-23T02:40:44;3.45;74.44
74946;HTU21D;63509;45.250;38.102;2023-02-23T02:50:57;3.29;74.49
74946;HTU21D;63509;45.250;38.102;2023-02-23T02:53:34;3.28;74.49
74946;HTU21D;63509;45.250;38.102;2023-02-23T02:56:04;3.26;74.47
74946;HTU21D;63509;45.250;38.102;2023-02-23T02:58:35;3.23;74.45
74946;HTU21D;63509;45.250;38.102;2023-02-23T03:01:07;3.18;74.39
74946;HTU21D;63509;45.250;38.102;2023-02-23T03:03:52;3.15;74.41
74946;HTU21D;63509;45.250;38.102;2023-02-23T03:06:45;3.12;74.38
74946;HTU21D;63509;45.250;38.102;2023-02-23T03:09:42;3.06;74.35
74946;HTU21D;63509;45.250;38.102;2023-02-23T03:15:26;2.97;74.22
74946;HTU21D;63509;45.250;38.102;2023-02-23T03:21:04;2.83;74.22
74946;HTU21D;63509;45.250;38.102;2023-02-23T03:24:03;2.81;74.20
74946;HTU21D;63509;45.250;38.102;2023-02-23T03:27:01;2.72;74.15
74946;HTU21D;63509;45.250;38.102;2023-02-23T03:29:58;2.71;74.15
74946;HTU21D;63509;45.250;38.102;2023-02-23T03:32:57;2.67;74.12
74946;HTU21D;63509;45.250;38.102;2023-02-23T03:36:03;2.65;74.12
74946;HTU21D;63509;45.250;38.102;2023-02-23T03:39:14;2.62;74.07
74946;HTU21D;63509;45.250;38.102;2023-02-23T03:42:04;2.59;74.02
74946;HTU21D;63509;45.250;38.102;2023-02-23T03:44:51;2.56;74.00
74946;HTU21D;63509;45.250;38.102;2023-02-23T03:47:40;2.54;73.98
74946;HTU21D;63509;45.250;38.102;2023-02-23T03:50:36;2.50;73.96
74946;HTU21D;63509;45.250;38.102;2023-02-23T03:53:38;2.50;73.93
74946;HTU21D;63509;45.250;38.102;2023-02-23T03:56:27;2.45;73.90
74946;HTU21D;63509;45.250;38.102;2023-02-23T03:59:14;2.43;73.87
74946;HTU21D;63509;45.250;38.102;2023-02-23T04:02:03;2.42;73.88
74946;HTU21D;63509;45.250;38.102;2023-02-23T04:04:50;2.39;73.88
74946;HTU21D;63509;45.250;38.102;2023-02-23T04:07:37;2.36;73.86
74946;HTU21D;63509;45.250;38.102;2023-02-23T04:10:25;2.32;73.86
74946;HTU21D;63509;45.250;38.102;2023-02-23T04:13:22;2.29;73.84
74946;HTU21D;63509;45.250;38.102;2023-02-23T04:15:55;2.27;73.77
74946;HTU21D;63509;45.250;38.102;2023-02-23T04:18:30;2.22;73.70
74946;HTU21D;63509;45.250;38.102;2023-02-23T04:20:58;2.19;73.70
74946;HTU21D;63509;45.250;38.102;2023-02-23T04:23:26;2.17;73.70
74946;HTU21D;63509;45.250;38.102;2023-02-23T04:25:52;2.14;73.67
74946;HTU21D;63509;45.250;38.102;2023-02-23T04:28:20;2.12;73.62
74946;HTU21D;63509;45.250;38.102;2023-02-23T04:30:46;2.09;73.62
74946;HTU21D;63509;45.250;38.102;2023-02-23T04:33:12;2.09;73.62
74946;HTU21D;63509;45.250;38.102;2023-02-23T04:35:39;2.09;73.59
74946;HTU21D;63509;45.250;38.102;2023-02-23T04:38:05;2.08;73.54
74946;HTU21D;63509;45.250;38.102;2023-02-23T04:40:32;2.08;73.57
74946;HTU21D;63509;45.250;38.102;2023-02-23T04:42:58;2.08;73.53
74946;HTU21D;63509;45.250;38.102;2023-02-23T04:45:24;2.06;73.50
74946;HTU21D;63509;45.250;38.102;2023-02-23T04:47:51;2.02;73.49
74946;HTU21D;63509;45.250;38.102;2023-02-23T04:50:17;1.96;73.44
74946;HTU21D;63509;45.250;38.102;2023-02-23T04:52:44;1.93;73.43
74946;HTU21D;63509;45.250;38.102;2023-02-23T04:55:18;1.86;73.37
74946;HTU21D;63509;45.250;38.102;2023-02-23T04:57:45;1.80;73.38
74946;HTU21D;63509;45.250;38.102;2023-02-23T05:00:11;1.77;73.45
74946;HTU21D;63509;45.250;38.102;2023-02-23T05:02:37;1.76;73.46
74946;HTU21D;63509;45.250;38.102;2023-02-23T05:05:03;1.72;73.27
74946;HTU21D;63509;45.250;38.102;2023-02-23T05:07:30;1.66;73.11
74946;HTU21D;63509;45.250;38.102;2023-02-23T05:09:56;1.60;73.19
74946;HTU21D;63509;45.250;38.102;2023-02-23T05:12:22;1.54;73.09
74946;HTU21D;63509;45.250;38.102;2023-02-23T05:14:48;1.51;73.22
74946;HTU21D;63509;45.250;38.102;2023-02-23T05:17:14;1.49;73.28
74946;HTU21D;63509;45.250;38.102;2023-02-23T05:19:40;1.50;73.33
74946;HTU21D;63509;45.250;38.102;2023-02-23T05:22:06;1.52;73.25
74946;HTU21D;63509;45.250;38.102;2023-02-23T05:24:32;1.51;73.25
74946;HTU21D;63509;45.250;38.102;2023-02-23T05:26:58;1.53;73.28
74946;HTU21D;63509;45.250;38.102;2023-02-23T05:29:24;1.55;73.28
74946;HTU21D;63509;45.250;38.102;2023-02-23T05:31:51;1.60;73.23
74946;HTU21D;63509;45.250;38.102;2023-02-23T05:34:17;1.61;73.15
74946;HTU21D;63509;45.250;38.102;2023-02-23T05:36:44;1.66;73.12
74946;HTU21D;63509;45.250;38.102;2023-02-23T05:39:09;1.67;73.09
74946;HTU21D;63509;45.250;38.102;2023-02-23T05:41:35;1.68;73.00
74946;HTU21D;63509;45.250;38.102;2023-02-23T05:44:01;1.66;72.98
74946;HTU21D;63509;45.250;38.102;2023-02-23T05:46:27;1.63;72.82
74946;HTU21D;63509;45.250;38.102;2023-02-23T05:48:59;1.58;72.89
74946;HTU21D;63509;45.250;38.102;2023-02-23T05:51:27;1.61;72.94
74946;HTU21D;63509;45.250;38.102;2023-02-23T05:53:53;1.64;72.95
74946;HTU21D;63509;45.250;38.102;2023-02-23T05:56:19;1.66;72.93
74946;HTU21D;63509;45.250;38.102;2023-02-23T05:58:50;1.69;72.96
74946;HTU21D;63509;45.250;38.102;2023-02-23T06:01:20;1.75;72.93
74946;HTU21D;63509;45.250;38.102;2023-02-23T06:03:47;1.76;72.84
74946;HTU21D;63509;45.250;38.102;2023-02-23T06:06:13;1.76;72.91
74946;HTU21D;63509;45.250;38.102;2023-02-23T06:08:40;1.77;72.80
74946;HTU21D;63509;45.250;38.102;2023-02-23T06:11:06;1.77;72.80
74946;HTU21D;63509;45.250;38.102;2023-02-23T06:13:33;1.78;72.85
74946;HTU21D;63509;45.250;38.102;2023-02-23T06:15:59;1.82;72.70
74946;HTU21D;63509;45.250;38.102;2023-02-23T06:18:26;1.86;72.73
74946;HTU21D;63509;45.250;38.102;2023-02-23T06:20:52;1.91;72.74
74946;HTU21D;63509;45.250;38.102;2023-02-23T06:23:18;2.00;72.80
74946;HTU21D;63509;45.250;38.102;2023-02-23T06:25:45;2.07;72.74
74946;HTU21D;63509;45.250;38.102;2023-02-23T06:28:12;2.17;72.74
74946;HTU21D;63509;45.250;38.102;2023-02-23T06:30:40;2.30;72.76
74946;HTU21D;63509;45.250;38.102;2023-02-23T06:33:06;2.44;72.73
74946;HTU21D;63509;45.250;38.102;2023-02-23T06:35:33;2.61;72.74
74946;HTU21D;63509;45.250;38.102;2023-02-23T06:38:00;2.78;72.62
74946;HTU21D;63509;45.250;38.102;2023-02-23T06:40:26;2.94;72.68
74946;HTU21D;63509;45.250;38.102;2023-02-23T06:42:53;3.14;72.75
74946;HTU21D;63509;45.250;38.102;2023-02-23T06:45:19;3.34;72.68
74946;HTU21D;63509;45.250;38.102;2023-02-23T06:47:46;3.50;72.65
74946;HTU21D;63509;45.250;38.102;2023-02-23T06:50:13;3.65;72.46
74946;HTU21D;63509;45.250;38.102;2023-02-23T06:52:40;3.77;72.30
74946;HTU21D;63509;45.250;38.102;2023-02-23T06:55:07;3.86;72.08
74946;HTU21D;63509;45.250;38.102;2023-02-23T06:57:33;3.95;71.88
74946;HTU21D;63509;45.250;38.102;2023-02-23T06:59:59;4.05;71.89
74946;HTU21D;63509;45.250;38.102;2023-02-23T07:02:26;4.13;71.74
74946;HTU21D;63509;45.250;38.102;2023-02-23T07:04:52;4.15;71.37
74946;HTU21D;63509;45.250;38.102;2023-02-23T07:07:18;4.17;71.42
74946;HTU21D;63509;45.250;38.102;2023-02-23T07:09:44;4.16;70.82
74946;HTU21D;63509;45.250;38.102;2023-02-23T07:12:10;4.13;70.89
74946;HTU21D;63509;45.250;38.102;2023-02-23T07:14:38;4.09;70.71
74946;HTU21D;63509;45.250;38.102;2023-02-23T07:17:04;4.08;70.64
74946;HTU21D;63509;45.250;38.102;2023-02-23T07:19:31;4.07;70.49
74946;HTU21D;63509;45.250;38.102;2023-02-23T07:21:57;4.06;70.44
74946;HTU21D;63509;45.250;38.102;2023-02-23T07:24:23;4.05;70.36
74946;HTU21D;63509;45.250;38.102;2023-02-23T07:26:49;4.08;70.45
74946;HTU21D;63509;45.250;38.102;2023-02-23T07:29:17;4.19;70.55
74946;HTU21D;63509;45.250;38.102;2023-02-23T07:31:43;4.36;70.55
74946;HTU21D;63509;45.250;38.102;2023-02-23T07:34:10;4.45;70.41
74946;HTU21D;63509;45.250;38.102;2023-02-23T07:36:39;4.50;70.31
74946;HTU21D;63509;45.250;38.102;2023-02-23T07:39:05;4.58;70.32
74946;HTU21D;63509;45.250;38.102;2023-02-23T07:41:32;4.64;70.26
74946;HTU21D;63509;45.250;38.102;2023-02-23T07:43:59;4.69;70.10
74946;HTU21D;63509;45.250;38.102;2023-02-23T07:46:25;4.68;69.97
74946;HTU21D;63509;45.250;38.102;2023-02-23T07:48:52;4.69;69.81
74946;HTU21D;63509;45.250;38.102;2023-02-23T07:51:18;4.65;69.68
74946;HTU21D;63509;45.250;38.102;2023-02-23T07:53:45;4.58;69.39
74946;HTU21D;63509;45.250;38.102;2023-02-23T07:56:11;4.50;69.29
74946;HTU21D;63509;45.250;38.102;2023-02-23T07:58:39;4.45;69.26
74946;HTU21D;63509;45.250;38.102;2023-02-23T08:01:06;4.38;69.23
74946;HTU21D;63509;45.250;38.102;2023-02-23T08:03:32;4.31;69.13
74946;HTU21D;63509;45.250;38.102;2023-02-23T08:05:58;4.17;69.00
74946;HTU21D;63509;45.250;38.102;2023-02-23T08:08:25;4.03;69.04
74946;HTU21D;63509;45.250;38.102;2023-02-23T08:10:59;3.92;69.05
74946;HTU21D;63509;45.250;38.102;2023-02-23T08:13:25;3.83;69.14
74946;HTU21D;63509;45.250;38.102;2023-02-23T08:15:51;3.75;69.10
74946;HTU21D;63509;45.250;38.102;2023-02-23T08:18:20;3.65;69.07
74946;HTU21D;63509;45.250;38.102;2023-02-23T08:20:46;3.55;69.01
74946;HTU21D;63509;45.250;38.102;2023-02-23T08:23:13;3.44;68.96
74946;HTU21D;63509;45.250;38.102;2023-02-23T08:25:39;3.32;69.00
74946;HTU21D;63509;45.250;38.102;2023-02-23T08:28:05;3.25;69.07
74946;HTU21D;63509;45.250;38.102;2023-02-23T08:30:31;3.19;69.07
74946;HTU21D;63509;45.250;38.102;2023-02-23T08:32:58;3.13;69.04
74946;HTU21D;63509;45.250;38.102;2023-02-23T08:35:28;3.08;69.04
74946;HTU21D;63509;45.250;38.102;2023-02-23T08:37:56;3.02;69.13
74946;HTU21D;63509;45.250;38.102;2023-02-23T08:40:26;2.96;69.12
74946;HTU21D;63509;45.250;38.102;2023-02-23T08:42:52;2.89;69.13
74946;HTU21D;63509;45.250;38.102;2023-02-23T08:45:21;2.87;69.26
74946;HTU21D;63509;45.250;38.102;2023-02-23T08:47:47;2.84;69.34
74946;HTU21D;63509;45.250;38.102;2023-02-23T08:50:13;2.84;69.46
74946;HTU21D;63509;45.250;38.102;2023-02-23T08:52:40;2.83;69.42
74946;HTU21D;63509;45.250;38.102;2023-02-23T08:55:07;2.81;69.32
74946;HTU21D;63509;45.250;38.102;2023-02-23T08:57:36;2.76;69.20
74946;HTU21D;63509;45.250;38.102;2023-02-23T09:00:04;2.72;69.17
74946;HTU21D;63509;45.250;38.102;2023-02-23T09:02:40;2.72;69.18
74946;HTU21D;63509;45.250;38.102;2023-02-23T09:05:06;2.72;69.26
74946;HTU21D;63509;45.250;38.102;2023-02-23T09:07:33;2.80;69.26
74946;HTU21D;63509;45.250;38.102;2023-02-23T09:09:59;2.87;69.27
74946;HTU21D;63509;45.250;38.102;2023-02-23T09:12:25;2.90;69.13
74946;HTU21D;63509;45.250;38.102;2023-02-23T09:14:51;2.90;69.01
74946;HTU21D;63509;45.250;38.102;2023-02-23T09:17:19;2.90;69.05
74946;HTU21D;63509;45.250;38.102;2023-02-23T09:19:49;2.98;69.12
74946;HTU21D;63509;45.250;38.102;2023-02-23T09:22:15;3.15;69.35
74946;HTU21D;63509;45.250;38.102;2023-02-23T09:24:43;3.43;69.76
74946;HTU21D;63509;45.250;38.102;2023-02-23T09:27:09;3.77;69.92
74946;HTU21D;63509;45.250;38.102;2023-02-23T09:29:37;3.95;69.55
74946;HTU21D;63509;45.250;38.102;2023-02-23T09:32:07;3.97;69.14
74946;HTU21D;63509;45.250;38.102;2023-02-23T09:34:33;3.98;68.94
74946;HTU21D;63509;45.250;38.102;2023-02-23T09:37:02;4.01;68.79
74946;HTU21D;63509;45.250;38.102;2023-02-23T09:39:29;4.03;68.78
74946;HTU21D;63509;45.250;38.102;2023-02-23T09:47:36;4.15;68.36
74946;HTU21D;63509;45.250;38.102;2023-02-23T09:50:27;4.09;68.24
74946;HTU21D;63509;45.250;38.102;2023-02-23T09:55:49;4.04;68.27
74946;HTU21D;63509;45.250;38.102;2023-02-23T09:58:28;4.14;68.39
74946;HTU21D;63509;45.250;38.102;2023-02-23T10:06:33;4.62;68.39
74946;HTU21D;63509;45.250;38.102;2023-02-23T10:20:29;4.74;68.02
74946;HTU21D;63509;45.250;38.102;2023-02-23T10:22:53;4.88;68.07
74946;HTU21D;63509;45.250;38.102;2023-02-23T10:25:25;5.07;68.16
74946;HTU21D;63509;45.250;38.102;2023-02-23T10:27:53;5.31;68.26
74946;HTU21D;63509;45.250;38.102;2023-02-23T10:30:23;5.55;68.30
74946;HTU21D;63509;45.250;38.102;2023-02-23T10:33:26;5.78;68.06
74946;HTU21D;63509;45.250;38.102;2023-02-23T10:35:53;5.77;67.40
74946;HTU21D;63509;45.250;38.102;2023-02-23T10:38:20;5.62;66.98
74946;HTU21D;63509;45.250;38.102;2023-02-23T10:40:53;5.41;66.62
74946;HTU21D;63509;45.250;38.102;2023-02-23T10:43:20;5.20;66.59
74946;HTU21D;63509;45.250;38.102;2023-02-23T10:45:49;5.04;66.49
74946;HTU21D;63509;45.250;38.102;2023-02-23T10:48:22;4.89;66.78
74946;HTU21D;63509;45.250;38.102;2023-02-23T10:50:51;4.76;66.87
74946;HTU21D;63509;45.250;38.102;2023-02-23T10:53:22;4.64;66.91
74946;HTU21D;63509;45.250;38.102;2023-02-23T10:56:05;4.63;67.14
74946;HTU21D;63509;45.250;38.102;2023-02-23T10:58:43;4.63;67.00
74946;HTU21D;63509;45.250;38.102;2023-02-23T11:01:12;4.60;66.83
74946;HTU21D;63509;45.250;38.102;2023-02-23T11:03:47;4.49;66.47
74946;HTU21D;63509;45.250;38.102;2023-02-23T11:06:36;4.35;66.43
74946;HTU21D;63509;45.250;38.102;2023-02-23T11:09:24;4.28;66.54
74946;HTU21D;63509;45.250;38.102;2023-02-23T11:12:18;4.34;66.68
74946;HTU21D;63509;45.250;38.102;2023-02-23T11:14:46;4.48;66.92
74946;HTU21D;63509;45.250;38.102;2023-02-23T11:17:34;4.68;66.97
74946;HTU21D;63509;45.250;38.102;2023-02-23T11:20:03;4.90;67.07
74946;HTU21D;63509;45.250;38.102;2023-02-23T11:22:35;5.04;66.93
74946;HTU21D;63509;45.250;38.102;2023-02-23T11:25:14;5.15;66.58
74946;HTU21D;63509;45.250;38.102;2023-02-23T11:27:46;5.07;65.98
74946;HTU21D;63509;45.250;38.102;2023-02-23T11:30:19;4.87;65.67
74946;HTU21D;63509;45.250;38.102;2023-02-23T11:32:57;4.63;65.45
74946;HTU21D;63509;45.250;38.102;2023-02-23T11:35:27;4.39;65.40
74946;HTU21D;63509;45.250;38.102;2023-02-23T11:37:54;4.20;65.50
74946;HTU21D;63509;45.250;38.102;2023-02-23T11:40:28;4.13;65.62
74946;HTU21D;63509;45.250;38.102;2023-02-23T11:45:38;4.15;65.50
74946;HTU21D;63509;45.250;38.102;2023-02-23T11:48:19;4.17;65.27
74946;HTU21D;63509;45.250;38.102;2023-02-23T11:50:48;4.18;65.17
74946;HTU21D;63509;45.250;38.102;2023-02-23T11:53:17;4.21;65.14
74946;HTU21D;63509;45.250;38.102;2023-02-23T11:55:52;4.27;64.98
74946;HTU21D;63509;45.250;38.102;2023-02-23T11:58:23;4.28;64.76
74946;HTU21D;63509;45.250;38.102;2023-02-23T12:01:04;4.28;64.72
74946;HTU21D;63509;45.250;38.102;2023-02-23T12:03:48;4.26;64.58
74946;HTU21D;63509;45.250;38.102;2023-02-23T12:06:44;4.21;64.57
74946;HTU21D;63509;45.250;38.102;2023-02-23T12:09:28;4.15;64.52
74946;HTU21D;63509;45.250;38.102;2023-02-23T12:12:08;4.10;64.44
74946;HTU21D;63509;45.250;38.102;2023-02-23T12:14:40;4.05;64.34
74946;HTU21D;63509;45.250;38.102;2023-02-23T12:17:16;4.03;64.31
74946;HTU21D;63509;45.250;38.102;2023-02-23T12:19:46;4.01;64.55
74946;HTU21D;63509;45.250;38.102;2023-02-23T12:22:18;3.93;64.43
74946;HTU21D;63509;45.250;38.102;2023-02-23T12:24:57;3.83;64.30
74946;HTU21D;63509;45.250;38.102;2023-02-23T12:30:45;3.77;64.53
74946;HTU21D;63509;45.250;38.102;2023-02-23T12:33:20;3.80;64.44
74946;HTU21D;63509;45.250;38.102;2023-02-23T12:35:59;3.83;64.38
74946;HTU21D;63509;45.250;38.102;2023-02-23T12:41:37;3.92;64.27
74946;HTU21D;63509;45.250;38.102;2023-02-23T12:44:48;3.91;64.21
74946;HTU21D;63509;45.250;38.102;2023-02-23T12:47:40;3.87;64.14
74946;HTU21D;63509;45.250;38.102;2023-02-23T12:58:53;3.64;64.05
74946;HTU21D;63509;45.250;38.102;2023-02-23T13:01:32;3.57;64.11
74946;HTU21D;63509;45.250;38.102;2023-02-23T13:09:27;3.43;64.09
74946;HTU21D;63509;45.250;38.102;2023-02-23T13:12:42;3.32;64.07
74946;HTU21D;63509;45.250;38.102;2023-02-23T13:18:25;3.21;64.13
74946;HTU21D;63509;45.250;38.102;2023-02-23T13:26:38;3.10;64.07
74946;HTU21D;63509;45.250;38.102;2023-02-23T13:31:44;3.01;64.05
74946;HTU21D;63509;45.250;38.102;2023-02-23T13:34:16;2.98;63.98
74946;HTU21D;63509;45.250;38.102;2023-02-23T13:36:46;2.94;63.96
74946;HTU21D;63509;45.250;38.102;2023-02-23T13:56:25;2.68;64.00
74946;HTU21D;63509;45.250;38.102;2023-02-23T13:59:01;2.70;63.94
74946;HTU21D;63509;45.250;38.102;2023-02-23T14:01:48;2.69;63.92
74946;HTU21D;63509;45.250;38.102;2023-02-23T14:09:40;2.67;63.77
74946;HTU21D;63509;45.250;38.102;2023-02-23T14:14:39;2.59;63.56
74946;HTU21D;63509;45.250;38.102;2023-02-23T14:20:05;2.38;63.48
74946;HTU21D;63509;45.250;38.102;2023-02-23T14:23:32;2.27;63.63
74946;HTU21D;63509;45.250;38.102;2023-02-23T14:26:11;2.23;63.66
74946;HTU21D;63509;45.250;38.102;2023-02-23T14:28:40;2.16;63.68
74946;HTU21D;63509;45.250;38.102;2023-02-23T14:42:05;1.97;63.63
74946;HTU21D;63509;45.250;38.102;2023-02-23T14:44:30;1.92;63.67
74946;HTU21D;63509;45.250;38.102;2023-02-23T14:49:41;1.86;63.66
74946;HTU21D;63509;45.250;38.102;2023-02-23T14:52:24;1.79;63.59
74946;HTU21D;63509;45.250;38.102;2023-02-23T14:55:03;1.72;63.63
74946;HTU21D;63509;45.250;38.102;2023-02-23T14:57:35;1.70;63.64
74946;HTU21D;63509;45.250;38.102;2023-02-23T15:00:17;1.66;63.63
74946;HTU21D;63509;45.250;38.102;2023-02-23T15:05:27;1.61;63.67
74946;HTU21D;63509;45.250;38.102;2023-02-23T15:07:57;1.58;63.67
74946;HTU21D;63509;45.250;38.102;2023-02-23T15:10:28;1.55;63.64
74946;HTU21D;63509;45.250;38.102;2023-02-23T15:12:56;1.56;63.66
74946;HTU21D;63509;45.250;38.102;2023-02-23T15:15:25;1.55;63.64
74946;HTU21D;63509;45.250;38.102;2023-02-23T15:17:57;1.53;63.63
74946;HTU21D;63509;45.250;38.102;2023-02-23T15:20:31;1.53;63.58
74946;HTU21D;63509;45.250;38.102;2023-02-23T15:23:01;1.51;63.56
74946;HTU21D;63509;45.250;38.102;2023-02-23T15:25:37;1.48;63.51
74946;HTU21D;63509;45.250;38.102;2023-02-23T15:30:47;1.45;63.56
74946;HTU21D;63509;45.250;38.102;2023-02-23T15:33:15;1.42;63.54
74946;HTU21D;63509;45.250;38.102;2023-02-23T15:38:27;1.38;63.57
74946;HTU21D;63509;45.250;38.102;2023-02-23T15:41:03;1.36;63.55
74946;HTU21D;63509;45.250;38.102;2023-02-23T15:43:32;1.31;63.56
74946;HTU21D;63509;45.250;38.102;2023-02-23T15:46:01;1.24;63.61
74946;HTU21D;63509;45.250;38.102;2023-02-23T15:48:43;1.21;63.63
74946;HTU21D;63509;45.250;38.102;2023-02-23T15:51:35;1.16;63.63
74946;HTU21D;63509;45.250;38.102;2023-02-23T15:54:49;1.10;63.64
74946;HTU21D;63509;45.250;38.102;2023-02-23T15:56:57;1.05;63.73
74946;HTU21D;63509;45.250;38.102;2023-02-23T15:59:36;0.99;63.75
74946;HTU21D;63509;45.250;38.102;2023-02-23T16:02:14;0.96;63.75
74946;HTU21D;63509;45.250;38.102;2023-02-23T16:04:42;0.93;63.77
74946;HTU21D;63509;45.250;38.102;2023-02-23T16:09:51;0.87;63.81
74946;HTU21D;63509;45.250;38.102;2023-02-23T16:12:29;0.83;63.84
74946;HTU21D;63509;45.250;38.102;2023-02-23T16:15:00;0.82;63.85
74946;HTU21D;63509;45.250;38.102;2023-02-23T16:18:00;0.78;63.89
74946;HTU21D;63509;45.250;38.102;2023-02-23T16:20:36;0.71;63.90
74946;HTU21D;63509;45.250;38.102;2023-02-23T16:23:05;0.64;64.01
74946;HTU21D;63509;45.250;38.102;2023-02-23T16:25:32;0.60;64.08
74946;HTU21D;63509;45.250;38.102;2023-02-23T16:28:00;0.58;64.11
74946;HTU21D;63509;45.250;38.102;2023-02-23T16:33:13;0.49;64.14
74946;HTU21D;63509;45.250;38.102;2023-02-23T16:35:46;0.43;64.11
74946;HTU21D;63509;45.250;38.102;2023-02-23T16:38:25;0.35;64.21
74946;HTU21D;63509;45.250;38.102;2023-02-23T16:40:51;0.30;64.27
74946;HTU21D;63509;45.250;38.102;2023-02-23T16:43:17;0.29;64.29
74946;HTU21D;63509;45.250;38.102;2023-02-23T16:45:43;0.25;64.30
74946;HTU21D;63509;45.250;38.102;2023-02-23T16:48:15;0.24;64.31
74946;HTU21D;63509;45.250;38.102;2023-02-23T16:50:42;0.24;64.30
74946;HTU21D;63509;45.250;38.102;2023-02-23T16:53:11;0.23;64.27
74946;HTU21D;63509;45.250;38.102;2023-02-23T16:55:45;0.21;64.30
74946;HTU21D;63509;45.250;38.102;2023-02-23T16:58:17;0.21;64.28
74946;HTU21D;63509;45.250;38.102;2023-02-23T17:00:44;0.19;64.24
74946;HTU21D;63509;45.250;38.102;2023-02-23T17:03:19;0.14;64.24
74946;HTU21D;63509;45.250;38.102;2023-02-23T17:05:47;0.10;64.25
74946;HTU21D;63509;45.250;38.102;2023-02-23T17:08:13;0.10;64.30
74946;HTU21D;63509;45.250;38.102;2023-02-23T17:10:40;0.07;64.31
74946;HTU21D;63509;45.250;38.102;2023-02-23T17:13:12;0.05;64.33
74946;HTU21D;63509;45.250;38.102;2023-02-23T17:15:41;0.02;64.35
74946;HTU21D;63509;45.250;38.102;2023-02-23T17:18:13;-0.01;64.41
74946;HTU21D;63509;45.250;38.102;2023-02-23T17:20:39;-0.02;64.44
74946;HTU21D;63509;45.250;38.102;2023-02-23T17:23:05;-0.06;64.47
74946;HTU21D;63509;45.250;38.102;2023-02-23T17:25:32;-0.09;64.51
74946;HTU21D;63509;45.250;38.102;2023-02-23T17:27:58;-0.11;64.52
74946;HTU21D;63509;45.250;38.102;2023-02-23T17:30:25;-0.13;64.53
74946;HTU21D;63509;45.250;38.102;2023-02-23T17:32:53;-0.15;64.58
74946;HTU21D;63509;45.250;38.102;2023-02-23T17:35:20;-0.17;64.62
74946;HTU21D;63509;45.250;38.102;2023-02-23T17:37:46;-0.21;64.65
74946;HTU21D;63509;45.250;38.102;2023-02-23T17:40:16;-0.22;64.65
74946;HTU21D;63509;45.250;38.102;2023-02-23T17:42:43;-0.23;64.66
74946;HTU21D;63509;45.250;38.102;2023-02-23T17:45:09;-0.24;64.69
74946;HTU21D;63509;45.250;38.102;2023-02-23T17:47:36;-0.25;64.69
74946;HTU21D;63509;45.250;38.102;2023-02-23T17:50:06;-0.28;64.68
74946;HTU21D;63509;45.250;38.102;2023-02-23T17:52:32;-0.30;64.69
74946;HTU21D;63509;45.250;38.102;2023-02-23T17:54:58;-0.34;64.72
74946;HTU21D;63509;45.250;38.102;2023-02-23T17:57:25;-0.35;64.76
74946;HTU21D;63509;45.250;38.102;2023-02-23T17:59:52;-0.39;64.75
74946;HTU21D;63509;45.250;38.102;2023-02-23T18:02:20;-0.45;64.81
74946;HTU21D;63509;45.250;38.102;2023-02-23T18:04:47;-0.49;64.87
74946;HTU21D;63509;45.250;38.102;2023-02-23T18:07:13;-0.50;64.88